EPWR

Copernicus Wrocław Airport

Wrocław, Poland

TAF EPWR 210530Z 2106/2206 28015KT 9999 BKN020 TEMPO 2106/2118 28020G34KT 4000 SHRA BKN012CB

Issued Valid From Valid To
Feb-21 @ 05:30 UTC
(2 hours ago)
Feb-21 @ 06:00 UTC
(2 hours ago)
Feb-22 @ 06:00 UTC
(in 22 hours)
Feb-21 @ 06:00 - Feb-22 @ 06:00
Wind Visibility Clouds
280° at 15 knots 10 km or more
  • Broken at 2,000' AGL
Temporary Feb-21 @ 06:00 - Feb-21 @ 18:00
Wind Visibility Clouds Conditions
280° at 20 knots
 Gusting to 34 knots
4,007 meters
  • Broken at 1,200' AGL
  • Rain
Issued Feb-21 @ 05:30 UTC
(2 hours ago)
Valid From Feb-21 @ 06:00 UTC
(2 hours ago)
Valid To Feb-22 @ 06:00 UTC
(in 22 hours)
Feb-21 @ 06:00 - Feb-22 @ 06:00
Wind Visibility
280° at 15 knots 10 km or more
Clouds
  • Broken at 2,000' AGL
Temporary Feb-21 @ 06:00 - Feb-21 @ 18:00
Wind Visibility
280° at 20 knots
 Gusting to 34 knots
4,007 meters
Clouds Conditions
  • Broken at 1,200' AGL
  • Rain